Terminal Aerodrome Forecast
Issued by NWS

Home | Current Version | Previous Version | Graphics & Text | Print | Product List | Glossary On
Versions: 1 2 3 4 5 6 7 8 9 10 11 12 13 14 15 16 17 18 19 20 21 22 23 24 25 26
998
FTUS43 KABR 192344 CCA
TAFATY
TAF COR
KATY 192344Z 2000/2024 01019G26KT 3SM -FZDZSN OVC015
     FM200200 02016G25KT 3SM -SN BLSN OVC015
     FM200500 02017G23KT 1SM -SN BLSN OVC015
     FM200800 01011KT 1/2SM SN OVC010
     FM201500 35014KT 3SM -SN OVC025
     FM201800 32013KT P6SM BKN020=

USA.gov is the U.S. government's official web portal to all federal, state and local government web resources and services.